sensor_id;sensor_type;location;lat;lon;timestamp;P1;durP1;ratioP1;P2;durP2;ratioP2
65717;SDS011;52445;52.466;-1.016;2023-02-01T00:00:27;10.02;;;2.70;;
65717;SDS011;52445;52.466;-1.016;2023-02-01T00:02:54;10.52;;;3.05;;
65717;SDS011;52445;52.466;-1.016;2023-02-01T00:05:21;7.65;;;2.38;;
65717;SDS011;52445;52.466;-1.016;2023-02-01T00:07:47;10.10;;;2.63;;
65717;SDS011;52445;52.466;-1.016;2023-02-01T00:10:15;11.95;;;2.78;;
65717;SDS011;52445;52.466;-1.016;2023-02-01T00:12:42;9.35;;;2.70;;
65717;SDS011;52445;52.466;-1.016;2023-02-01T00:15:09;7.95;;;3.00;;
65717;SDS011;52445;52.466;-1.016;2023-02-01T00:17:36;8.27;;;2.53;;
65717;SDS011;52445;52.466;-1.016;2023-02-01T00:20:03;6.97;;;2.20;;
65717;SDS011;52445;52.466;-1.016;2023-02-01T00:22:30;13.40;;;2.80;;
65717;SDS011;52445;52.466;-1.016;2023-02-01T00:24:56;11.90;;;1.13;;
65717;SDS011;52445;52.466;-1.016;2023-02-01T00:27:23;10.98;;;2.80;;
65717;SDS011;52445;52.466;-1.016;2023-02-01T00:29:50;5.60;;;1.65;;
65717;SDS011;52445;52.466;-1.016;2023-02-01T00:32:16;9.27;;;2.45;;
65717;SDS011;52445;52.466;-1.016;2023-02-01T00:34:43;8.73;;;2.38;;
65717;SDS011;52445;52.466;-1.016;2023-02-01T00:37:09;11.25;;;2.58;;
65717;SDS011;52445;52.466;-1.016;2023-02-01T00:39:36;5.55;;;2.20;;
65717;SDS011;52445;52.466;-1.016;2023-02-01T00:42:03;8.88;;;1.65;;
65717;SDS011;52445;52.466;-1.016;2023-02-01T00:44:29;9.40;;;2.60;;
65717;SDS011;52445;52.466;-1.016;2023-02-01T00:46:59;10.73;;;2.58;;
65717;SDS011;52445;52.466;-1.016;2023-02-01T00:49:27;8.32;;;3.78;;
65717;SDS011;52445;52.466;-1.016;2023-02-01T00:51:54;9.20;;;2.50;;
65717;SDS011;52445;52.466;-1.016;2023-02-01T00:54:21;7.10;;;2.17;;
65717;SDS011;52445;52.466;-1.016;2023-02-01T00:56:48;8.75;;;2.45;;
65717;SDS011;52445;52.466;-1.016;2023-02-01T00:59:15;9.95;;;2.35;;
65717;SDS011;52445;52.466;-1.016;2023-02-01T01:01:41;5.90;;;2.17;;
65717;SDS011;52445;52.466;-1.016;2023-02-01T01:04:08;15.85;;;2.63;;
65717;SDS011;52445;52.466;-1.016;2023-02-01T01:06:35;10.43;;;2.75;;
65717;SDS011;52445;52.466;-1.016;2023-02-01T01:09:03;9.50;;;2.83;;
65717;SDS011;52445;52.466;-1.016;2023-02-01T01:11:32;9.75;;;2.20;;
65717;SDS011;52445;52.466;-1.016;2023-02-01T01:14:00;9.70;;;2.33;;
65717;SDS011;52445;52.466;-1.016;2023-02-01T01:16:29;11.18;;;3.38;;
65717;SDS011;52445;52.466;-1.016;2023-02-01T01:18:57;9.40;;;2.38;;
65717;SDS011;52445;52.466;-1.016;2023-02-01T01:21:24;11.00;;;2.53;;
65717;SDS011;52445;52.466;-1.016;2023-02-01T01:23:53;10.70;;;2.28;;
65717;SDS011;52445;52.466;-1.016;2023-02-01T01:26:24;6.00;;;2.80;;
65717;SDS011;52445;52.466;-1.016;2023-02-01T01:28:55;7.78;;;2.40;;
65717;SDS011;52445;52.466;-1.016;2023-02-01T01:31:25;6.35;;;2.72;;
65717;SDS011;52445;52.466;-1.016;2023-02-01T01:33:55;9.70;;;3.28;;
65717;SDS011;52445;52.466;-1.016;2023-02-01T01:36:25;6.85;;;2.45;;
65717;SDS011;52445;52.466;-1.016;2023-02-01T01:38:52;9.80;;;3.33;;
65717;SDS011;52445;52.466;-1.016;2023-02-01T01:41:22;7.55;;;2.65;;
65717;SDS011;52445;52.466;-1.016;2023-02-01T01:43:55;7.68;;;2.60;;
65717;SDS011;52445;52.466;-1.016;2023-02-01T01:46:27;5.95;;;2.53;;
65717;SDS011;52445;52.466;-1.016;2023-02-01T01:49:04;7.05;;;2.60;;
65717;SDS011;52445;52.466;-1.016;2023-02-01T01:51:43;6.15;;;2.75;;
65717;SDS011;52445;52.466;-1.016;2023-02-01T01:54:18;6.72;;;0.88;;
65717;SDS011;52445;52.466;-1.016;2023-02-01T01:56:54;8.20;;;2.67;;
65717;SDS011;52445;52.466;-1.016;2023-02-01T01:59:31;8.98;;;2.83;;
65717;SDS011;52445;52.466;-1.016;2023-02-01T02:02:01;8.65;;;2.50;;
65717;SDS011;52445;52.466;-1.016;2023-02-01T02:04:28;10.95;;;2.42;;
65717;SDS011;52445;52.466;-1.016;2023-02-01T02:06:59;7.10;;;2.08;;
65717;SDS011;52445;52.466;-1.016;2023-02-01T02:09:30;6.10;;;2.17;;
65717;SDS011;52445;52.466;-1.016;2023-02-01T02:11:56;5.32;;;2.40;;
65717;SDS011;52445;52.466;-1.016;2023-02-01T02:14:23;8.25;;;2.42;;
65717;SDS011;52445;52.466;-1.016;2023-02-01T02:31:25;7.72;;;1.10;;
65717;SDS011;52445;52.466;-1.016;2023-02-01T02:42:32;6.72;;;1.27;;
65717;SDS011;52445;52.466;-1.016;2023-02-01T02:45:44;7.20;;;1.55;;
65717;SDS011;52445;52.466;-1.016;2023-02-01T02:48:42;11.88;;;1.48;;
65717;SDS011;52445;52.466;-1.016;2023-02-01T02:51:13;8.07;;;0.90;;
65717;SDS011;52445;52.466;-1.016;2023-02-01T02:54:23;4.05;;;1.33;;
65717;SDS011;52445;52.466;-1.016;2023-02-01T02:59:51;9.38;;;2.17;;
65717;SDS011;52445;52.466;-1.016;2023-02-01T03:02:39;9.05;;;2.25;;
65717;SDS011;52445;52.466;-1.016;2023-02-01T03:05:31;3.78;;;2.03;;
65717;SDS011;52445;52.466;-1.016;2023-02-01T03:10:45;12.98;;;2.72;;
65717;SDS011;52445;52.466;-1.016;2023-02-01T03:13:19;6.88;;;2.47;;
65717;SDS011;52445;52.466;-1.016;2023-02-01T03:22:01;8.38;;;2.45;;
65717;SDS011;52445;52.466;-1.016;2023-02-01T03:24:33;9.38;;;2.55;;
65717;SDS011;52445;52.466;-1.016;2023-02-01T03:27:07;13.75;;;2.25;;
65717;SDS011;52445;52.466;-1.016;2023-02-01T03:29:43;8.20;;;2.10;;
65717;SDS011;52445;52.466;-1.016;2023-02-01T03:32:32;5.28;;;2.55;;
65717;SDS011;52445;52.466;-1.016;2023-02-01T03:35:22;7.65;;;2.08;;
65717;SDS011;52445;52.466;-1.016;2023-02-01T03:37:54;11.95;;;2.75;;
65717;SDS011;52445;52.466;-1.016;2023-02-01T03:40:27;5.70;;;2.08;;
65717;SDS011;52445;52.466;-1.016;2023-02-01T03:42:59;15.52;;;2.72;;
65717;SDS011;52445;52.466;-1.016;2023-02-01T03:45:33;11.07;;;2.60;;
65717;SDS011;52445;52.466;-1.016;2023-02-01T03:48:06;9.32;;;2.58;;
65717;SDS011;52445;52.466;-1.016;2023-02-01T03:50:35;8.40;;;1.90;;
65717;SDS011;52445;52.466;-1.016;2023-02-01T03:53:07;6.55;;;2.67;;
65717;SDS011;52445;52.466;-1.016;2023-02-01T03:55:37;9.20;;;2.20;;
65717;SDS011;52445;52.466;-1.016;2023-02-01T03:58:06;8.02;;;2.30;;
65717;SDS011;52445;52.466;-1.016;2023-02-01T04:00:37;4.28;;;2.35;;
65717;SDS011;52445;52.466;-1.016;2023-02-01T04:03:05;9.23;;;2.42;;
65717;SDS011;52445;52.466;-1.016;2023-02-01T04:05:33;6.55;;;3.10;;
65717;SDS011;52445;52.466;-1.016;2023-02-01T04:08:00;5.90;;;2.75;;
65717;SDS011;52445;52.466;-1.016;2023-02-01T04:10:27;7.00;;;2.30;;
65717;SDS011;52445;52.466;-1.016;2023-02-01T04:12:54;5.18;;;2.50;;
65717;SDS011;52445;52.466;-1.016;2023-02-01T04:15:20;8.13;;;2.17;;
65717;SDS011;52445;52.466;-1.016;2023-02-01T04:17:47;8.63;;;2.22;;
65717;SDS011;52445;52.466;-1.016;2023-02-01T04:20:14;10.57;;;2.40;;
65717;SDS011;52445;52.466;-1.016;2023-02-01T04:22:40;6.38;;;2.17;;
65717;SDS011;52445;52.466;-1.016;2023-02-01T04:25:07;6.35;;;1.77;;
65717;SDS011;52445;52.466;-1.016;2023-02-01T04:27:34;8.10;;;3.35;;
65717;SDS011;52445;52.466;-1.016;2023-02-01T04:30:01;7.88;;;2.20;;
65717;SDS011;52445;52.466;-1.016;2023-02-01T04:32:29;7.00;;;2.72;;
65717;SDS011;52445;52.466;-1.016;2023-02-01T04:34:55;5.25;;;2.72;;
65717;SDS011;52445;52.466;-1.016;2023-02-01T04:37:22;6.18;;;2.53;;
65717;SDS011;52445;52.466;-1.016;2023-02-01T04:39:49;4.82;;;2.35;;
65717;SDS011;52445;52.466;-1.016;2023-02-01T04:42:15;9.55;;;2.50;;
65717;SDS011;52445;52.466;-1.016;2023-02-01T04:44:42;10.00;;;1.40;;
65717;SDS011;52445;52.466;-1.016;2023-02-01T04:47:09;11.77;;;2.78;;
65717;SDS011;52445;52.466;-1.016;2023-02-01T04:49:35;7.90;;;2.95;;
65717;SDS011;52445;52.466;-1.016;2023-02-01T04:52:02;5.22;;;2.13;;
65717;SDS011;52445;52.466;-1.016;2023-02-01T04:54:29;5.97;;;2.97;;
65717;SDS011;52445;52.466;-1.016;2023-02-01T04:56:55;3.45;;;2.55;;
65717;SDS011;52445;52.466;-1.016;2023-02-01T04:59:22;8.15;;;2.35;;
65717;SDS011;52445;52.466;-1.016;2023-02-01T05:01:49;7.38;;;2.33;;
65717;SDS011;52445;52.466;-1.016;2023-02-01T05:04:15;5.00;;;1.83;;
65717;SDS011;52445;52.466;-1.016;2023-02-01T05:06:44;8.00;;;2.17;;
65717;SDS011;52445;52.466;-1.016;2023-02-01T05:09:11;7.88;;;2.92;;
65717;SDS011;52445;52.466;-1.016;2023-02-01T05:11:38;8.30;;;2.50;;
65717;SDS011;52445;52.466;-1.016;2023-02-01T05:14:24;8.30;;;2.90;;
65717;SDS011;52445;52.466;-1.016;2023-02-01T05:16:51;11.80;;;2.67;;
65717;SDS011;52445;52.466;-1.016;2023-02-01T05:19:18;5.75;;;2.47;;
65717;SDS011;52445;52.466;-1.016;2023-02-01T05:21:44;9.45;;;2.50;;
65717;SDS011;52445;52.466;-1.016;2023-02-01T05:24:11;7.13;;;2.85;;
65717;SDS011;52445;52.466;-1.016;2023-02-01T05:26:47;4.03;;;2.08;;
65717;SDS011;52445;52.466;-1.016;2023-02-01T05:29:15;6.78;;;3.08;;
65717;SDS011;52445;52.466;-1.016;2023-02-01T05:31:43;7.22;;;2.80;;
65717;SDS011;52445;52.466;-1.016;2023-02-01T05:34:11;8.27;;;2.42;;
65717;SDS011;52445;52.466;-1.016;2023-02-01T05:36:38;6.97;;;2.40;;
65717;SDS011;52445;52.466;-1.016;2023-02-01T05:39:05;8.70;;;2.65;;
65717;SDS011;52445;52.466;-1.016;2023-02-01T05:41:32;7.70;;;2.92;;
65717;SDS011;52445;52.466;-1.016;2023-02-01T05:43:58;7.93;;;2.38;;
65717;SDS011;52445;52.466;-1.016;2023-02-01T05:46:25;6.45;;;2.40;;
65717;SDS011;52445;52.466;-1.016;2023-02-01T05:48:52;7.40;;;1.88;;
65717;SDS011;52445;52.466;-1.016;2023-02-01T05:51:18;5.22;;;2.22;;
65717;SDS011;52445;52.466;-1.016;2023-02-01T05:53:45;4.43;;;2.60;;
65717;SDS011;52445;52.466;-1.016;2023-02-01T05:56:11;9.10;;;3.20;;
65717;SDS011;52445;52.466;-1.016;2023-02-01T05:58:38;6.63;;;1.85;;
65717;SDS011;52445;52.466;-1.016;2023-02-01T06:01:04;7.47;;;1.90;;
65717;SDS011;52445;52.466;-1.016;2023-02-01T06:03:31;4.40;;;1.65;;
65717;SDS011;52445;52.466;-1.016;2023-02-01T06:05:58;10.23;;;2.15;;
65717;SDS011;52445;52.466;-1.016;2023-02-01T06:08:27;9.52;;;2.35;;
65717;SDS011;52445;52.466;-1.016;2023-02-01T06:10:58;7.97;;;2.05;;
65717;SDS011;52445;52.466;-1.016;2023-02-01T06:13:27;8.13;;;2.38;;
65717;SDS011;52445;52.466;-1.016;2023-02-01T06:15:53;6.25;;;2.60;;
65717;SDS011;52445;52.466;-1.016;2023-02-01T06:18:20;6.78;;;2.10;;
65717;SDS011;52445;52.466;-1.016;2023-02-01T06:20:51;5.05;;;2.53;;
65717;SDS011;52445;52.466;-1.016;2023-02-01T06:23:19;10.93;;;2.65;;
65717;SDS011;52445;52.466;-1.016;2023-02-01T06:25:46;5.10;;;1.48;;
65717;SDS011;52445;52.466;-1.016;2023-02-01T06:28:12;10.70;;;2.10;;
65717;SDS011;52445;52.466;-1.016;2023-02-01T06:30:39;9.20;;;2.47;;
65717;SDS011;52445;52.466;-1.016;2023-02-01T06:33:09;4.75;;;0.85;;
65717;SDS011;52445;52.466;-1.016;2023-02-01T06:35:35;10.90;;;2.15;;
65717;SDS011;52445;52.466;-1.016;2023-02-01T06:38:02;8.80;;;2.70;;
65717;SDS011;52445;52.466;-1.016;2023-02-01T06:40:29;10.75;;;2.78;;
65717;SDS011;52445;52.466;-1.016;2023-02-01T06:42:55;5.57;;;0.82;;
65717;SDS011;52445;52.466;-1.016;2023-02-01T06:45:22;11.32;;;2.17;;
65717;SDS011;52445;52.466;-1.016;2023-02-01T06:47:48;10.60;;;2.22;;
65717;SDS011;52445;52.466;-1.016;2023-02-01T06:50:15;8.52;;;2.80;;
65717;SDS011;52445;52.466;-1.016;2023-02-01T06:52:42;9.60;;;0.80;;
65717;SDS011;52445;52.466;-1.016;2023-02-01T06:55:08;7.72;;;2.70;;
65717;SDS011;52445;52.466;-1.016;2023-02-01T06:57:35;6.82;;;2.15;;
65717;SDS011;52445;52.466;-1.016;2023-02-01T07:00:03;11.23;;;2.38;;
65717;SDS011;52445;52.466;-1.016;2023-02-01T07:02:30;8.35;;;2.67;;
65717;SDS011;52445;52.466;-1.016;2023-02-01T07:04:57;9.65;;;2.50;;
65717;SDS011;52445;52.466;-1.016;2023-02-01T07:07:24;14.68;;;3.08;;
65717;SDS011;52445;52.466;-1.016;2023-02-01T07:09:50;6.13;;;2.05;;
65717;SDS011;52445;52.466;-1.016;2023-02-01T07:12:18;6.90;;;2.20;;
65717;SDS011;52445;52.466;-1.016;2023-02-01T07:14:45;8.57;;;2.60;;
65717;SDS011;52445;52.466;-1.016;2023-02-01T07:17:11;8.10;;;1.10;;
65717;SDS011;52445;52.466;-1.016;2023-02-01T07:19:38;6.22;;;2.53;;
65717;SDS011;52445;52.466;-1.016;2023-02-01T07:22:04;13.90;;;3.30;;
65717;SDS011;52445;52.466;-1.016;2023-02-01T07:24:31;23.00;;;8.52;;
65717;SDS011;52445;52.466;-1.016;2023-02-01T07:26:59;7.95;;;3.10;;
65717;SDS011;52445;52.466;-1.016;2023-02-01T07:29:26;15.57;;;4.30;;
65717;SDS011;52445;52.466;-1.016;2023-02-01T07:31:52;13.65;;;3.45;;
65717;SDS011;52445;52.466;-1.016;2023-02-01T07:34:19;21.48;;;8.05;;
65717;SDS011;52445;52.466;-1.016;2023-02-01T07:36:46;17.92;;;7.63;;
65717;SDS011;52445;52.466;-1.016;2023-02-01T07:39:12;18.92;;;6.18;;
65717;SDS011;52445;52.466;-1.016;2023-02-01T07:41:39;16.08;;;5.72;;
65717;SDS011;52445;52.466;-1.016;2023-02-01T07:44:05;15.38;;;6.38;;
65717;SDS011;52445;52.466;-1.016;2023-02-01T07:46:32;15.05;;;4.05;;
65717;SDS011;52445;52.466;-1.016;2023-02-01T07:48:58;14.38;;;5.63;;
65717;SDS011;52445;52.466;-1.016;2023-02-01T07:51:25;12.55;;;4.03;;
65717;SDS011;52445;52.466;-1.016;2023-02-01T07:53:51;11.77;;;4.20;;
65717;SDS011;52445;52.466;-1.016;2023-02-01T07:56:21;11.52;;;3.22;;
65717;SDS011;52445;52.466;-1.016;2023-02-01T07:58:49;13.38;;;6.22;;
65717;SDS011;52445;52.466;-1.016;2023-02-01T08:01:17;11.90;;;5.30;;
65717;SDS011;52445;52.466;-1.016;2023-02-01T08:03:48;8.90;;;3.85;;
65717;SDS011;52445;52.466;-1.016;2023-02-01T08:06:16;12.73;;;3.92;;
65717;SDS011;52445;52.466;-1.016;2023-02-01T08:08:43;13.40;;;3.45;;
65717;SDS011;52445;52.466;-1.016;2023-02-01T08:11:11;12.05;;;2.65;;
65717;SDS011;52445;52.466;-1.016;2023-02-01T08:13:39;5.28;;;2.33;;
65717;SDS011;52445;52.466;-1.016;2023-02-01T08:16:06;6.65;;;4.07;;
65717;SDS011;52445;52.466;-1.016;2023-02-01T08:18:35;13.13;;;3.60;;
65717;SDS011;52445;52.466;-1.016;2023-02-01T08:21:03;14.40;;;5.75;;
65717;SDS011;52445;52.466;-1.016;2023-02-01T08:23:36;11.57;;;2.63;;
65717;SDS011;52445;52.466;-1.016;2023-02-01T08:26:08;16.65;;;5.53;;
65717;SDS011;52445;52.466;-1.016;2023-02-01T08:28:52;13.68;;;4.38;;
65717;SDS011;52445;52.466;-1.016;2023-02-01T08:31:23;9.75;;;3.60;;
65717;SDS011;52445;52.466;-1.016;2023-02-01T08:33:52;11.85;;;3.95;;
65717;SDS011;52445;52.466;-1.016;2023-02-01T08:36:21;8.13;;;5.07;;
65717;SDS011;52445;52.466;-1.016;2023-02-01T08:38:49;12.30;;;3.80;;
65717;SDS011;52445;52.466;-1.016;2023-02-01T08:41:16;13.45;;;4.68;;
65717;SDS011;52445;52.466;-1.016;2023-02-01T08:43:45;10.65;;;4.97;;
65717;SDS011;52445;52.466;-1.016;2023-02-01T08:46:12;13.60;;;6.43;;
65717;SDS011;52445;52.466;-1.016;2023-02-01T08:48:39;16.20;;;4.47;;
65717;SDS011;52445;52.466;-1.016;2023-02-01T08:51:07;12.60;;;5.00;;
65717;SDS011;52445;52.466;-1.016;2023-02-01T08:53:36;12.00;;;5.30;;
65717;SDS011;52445;52.466;-1.016;2023-02-01T08:56:04;12.90;;;4.18;;
65717;SDS011;52445;52.466;-1.016;2023-02-01T08:58:31;10.93;;;4.43;;
65717;SDS011;52445;52.466;-1.016;2023-02-01T09:01:01;10.10;;;3.85;;
65717;SDS011;52445;52.466;-1.016;2023-02-01T09:03:31;13.63;;;6.80;;
65717;SDS011;52445;52.466;-1.016;2023-02-01T09:06:03;9.50;;;4.03;;
65717;SDS011;52445;52.466;-1.016;2023-02-01T09:08:31;13.25;;;4.40;;
65717;SDS011;52445;52.466;-1.016;2023-02-01T09:11:02;7.00;;;3.67;;
65717;SDS011;52445;52.466;-1.016;2023-02-01T09:13:31;11.50;;;3.08;;
65717;SDS011;52445;52.466;-1.016;2023-02-01T09:15:59;7.32;;;2.60;;
65717;SDS011;52445;52.466;-1.016;2023-02-01T09:18:26;10.98;;;3.60;;
65717;SDS011;52445;52.466;-1.016;2023-02-01T09:20:53;8.90;;;1.85;;
65717;SDS011;52445;52.466;-1.016;2023-02-01T09:23:19;10.20;;;3.85;;
65717;SDS011;52445;52.466;-1.016;2023-02-01T09:25:46;10.35;;;3.30;;
65717;SDS011;52445;52.466;-1.016;2023-02-01T09:28:16;9.23;;;3.35;;
65717;SDS011;52445;52.466;-1.016;2023-02-01T09:30:43;12.38;;;3.55;;
65717;SDS011;52445;52.466;-1.016;2023-02-01T09:33:10;7.47;;;3.03;;
65717;SDS011;52445;52.466;-1.016;2023-02-01T09:35:37;14.05;;;5.30;;
65717;SDS011;52445;52.466;-1.016;2023-02-01T09:38:04;10.73;;;4.47;;
65717;SDS011;52445;52.466;-1.016;2023-02-01T09:40:31;11.20;;;5.95;;
65717;SDS011;52445;52.466;-1.016;2023-02-01T09:43:04;7.03;;;3.92;;
65717;SDS011;52445;52.466;-1.016;2023-02-01T09:45:45;9.10;;;2.78;;
65717;SDS011;52445;52.466;-1.016;2023-02-01T09:48:24;8.45;;;2.72;;
65717;SDS011;52445;52.466;-1.016;2023-02-01T09:50:59;7.00;;;1.45;;
65717;SDS011;52445;52.466;-1.016;2023-02-01T09:53:32;6.32;;;1.88;;
65717;SDS011;52445;52.466;-1.016;2023-02-01T09:56:04;9.30;;;1.52;;
65717;SDS011;52445;52.466;-1.016;2023-02-01T10:01:13;6.22;;;1.08;;
65717;SDS011;52445;52.466;-1.016;2023-02-01T10:03:45;7.90;;;1.58;;
65717;SDS011;52445;52.466;-1.016;2023-02-01T10:06:30;9.40;;;1.80;;
65717;SDS011;52445;52.466;-1.016;2023-02-01T10:15:22;5.25;;;0.90;;
65717;SDS011;52445;52.466;-1.016;2023-02-01T10:20:51;7.00;;;1.27;;
65717;SDS011;52445;52.466;-1.016;2023-02-01T10:28:38;9.90;;;2.95;;
65717;SDS011;52445;52.466;-1.016;2023-02-01T10:31:07;8.93;;;2.85;;
65717;SDS011;52445;52.466;-1.016;2023-02-01T10:33:39;6.85;;;2.50;;
65717;SDS011;52445;52.466;-1.016;2023-02-01T10:36:14;5.93;;;2.40;;
65717;SDS011;52445;52.466;-1.016;2023-02-01T10:38:46;10.38;;;2.67;;
65717;SDS011;52445;52.466;-1.016;2023-02-01T10:41:15;6.80;;;2.92;;
65717;SDS011;52445;52.466;-1.016;2023-02-01T10:43:44;9.85;;;2.70;;
65717;SDS011;52445;52.466;-1.016;2023-02-01T10:46:16;6.78;;;2.22;;
65717;SDS011;52445;52.466;-1.016;2023-02-01T10:48:43;7.38;;;2.10;;
65717;SDS011;52445;52.466;-1.016;2023-02-01T10:56:25;13.95;;;3.40;;
65717;SDS011;52445;52.466;-1.016;2023-02-01T10:59:02;15.52;;;2.97;;
65717;SDS011;52445;52.466;-1.016;2023-02-01T11:01:37;12.75;;;2.88;;
65717;SDS011;52445;52.466;-1.016;2023-02-01T11:04:09;8.18;;;1.63;;
65717;SDS011;52445;52.466;-1.016;2023-02-01T11:06:39;7.32;;;1.05;;
65717;SDS011;52445;52.466;-1.016;2023-02-01T11:17:12;10.15;;;1.65;;
65717;SDS011;52445;52.466;-1.016;2023-02-01T11:19:59;8.13;;;0.95;;
65717;SDS011;52445;52.466;-1.016;2023-02-01T11:22:28;11.65;;;1.20;;
65717;SDS011;52445;52.466;-1.016;2023-02-01T11:24:56;5.85;;;1.10;;
65717;SDS011;52445;52.466;-1.016;2023-02-01T11:27:24;13.23;;;1.45;;
65717;SDS011;52445;52.466;-1.016;2023-02-01T11:29:55;10.50;;;2.03;;
65717;SDS011;52445;52.466;-1.016;2023-02-01T11:32:25;7.82;;;1.17;;
65717;SDS011;52445;52.466;-1.016;2023-02-01T11:35:11;10.35;;;1.38;;
65717;SDS011;52445;52.466;-1.016;2023-02-01T11:37:43;10.18;;;2.05;;
65717;SDS011;52445;52.466;-1.016;2023-02-01T11:42:58;10.07;;;1.00;;
65717;SDS011;52445;52.466;-1.016;2023-02-01T11:45:28;6.60;;;1.17;;
65717;SDS011;52445;52.466;-1.016;2023-02-01T11:47:57;8.23;;;1.77;;
65717;SDS011;52445;52.466;-1.016;2023-02-01T11:50:28;7.43;;;1.35;;
65717;SDS011;52445;52.466;-1.016;2023-02-01T11:53:05;6.85;;;1.73;;
65717;SDS011;52445;52.466;-1.016;2023-02-01T12:02:00;4.25;;;1.10;;
65717;SDS011;52445;52.466;-1.016;2023-02-01T12:04:44;10.02;;;1.20;;
65717;SDS011;52445;52.466;-1.016;2023-02-01T12:43:45;6.95;;;1.20;;
65717;SDS011;52445;52.466;-1.016;2023-02-01T12:46:19;8.75;;;1.00;;
65717;SDS011;52445;52.466;-1.016;2023-02-01T12:51:27;7.45;;;1.58;;
65717;SDS011;52445;52.466;-1.016;2023-02-01T12:56:53;2.45;;;0.70;;
65717;SDS011;52445;52.466;-1.016;2023-02-01T12:59:34;11.27;;;2.60;;
65717;SDS011;52445;52.466;-1.016;2023-02-01T13:04:47;9.20;;;1.25;;
65717;SDS011;52445;52.466;-1.016;2023-02-01T13:07:27;3.42;;;1.00;;
65717;SDS011;52445;52.466;-1.016;2023-02-01T13:10:02;9.30;;;1.42;;
65717;SDS011;52445;52.466;-1.016;2023-02-01T13:12:33;4.53;;;0.95;;
65717;SDS011;52445;52.466;-1.016;2023-02-01T13:15:10;2.55;;;1.30;;
65717;SDS011;52445;52.466;-1.016;2023-02-01T13:17:48;8.27;;;0.70;;
65717;SDS011;52445;52.466;-1.016;2023-02-01T13:22:57;4.78;;;0.93;;
65717;SDS011;52445;52.466;-1.016;2023-02-01T13:44:50;5.25;;;3.00;;
65717;SDS011;52445;52.466;-1.016;2023-02-01T13:47:26;7.25;;;2.45;;
65717;SDS011;52445;52.466;-1.016;2023-02-01T13:49:57;6.85;;;2.83;;
65717;SDS011;52445;52.466;-1.016;2023-02-01T13:52:29;4.90;;;2.15;;
65717;SDS011;52445;52.466;-1.016;2023-02-01T13:58:00;6.25;;;1.55;;
65717;SDS011;52445;52.466;-1.016;2023-02-01T14:00:34;4.47;;;0.70;;
65717;SDS011;52445;52.466;-1.016;2023-02-01T14:08:25;10.27;;;1.02;;
65717;SDS011;52445;52.466;-1.016;2023-02-01T14:11:03;4.05;;;0.90;;
65717;SDS011;52445;52.466;-1.016;2023-02-01T14:16:12;9.82;;;1.20;;
65717;SDS011;52445;52.466;-1.016;2023-02-01T14:21:19;5.35;;;3.03;;
65717;SDS011;52445;52.466;-1.016;2023-02-01T14:23:58;4.72;;;1.58;;
65717;SDS011;52445;52.466;-1.016;2023-02-01T14:32:03;10.05;;;1.67;;
65717;SDS011;52445;52.466;-1.016;2023-02-01T14:39:59;5.20;;;1.25;;
65717;SDS011;52445;52.466;-1.016;2023-02-01T14:42:45;6.88;;;0.85;;
65717;SDS011;52445;52.466;-1.016;2023-02-01T14:47:54;6.07;;;1.92;;
65717;SDS011;52445;52.466;-1.016;2023-02-01T14:50:47;6.55;;;1.25;;
65717;SDS011;52445;52.466;-1.016;2023-02-01T14:53:17;1.45;;;0.75;;
65717;SDS011;52445;52.466;-1.016;2023-02-01T15:01:20;7.90;;;1.10;;
65717;SDS011;52445;52.466;-1.016;2023-02-01T15:04:09;5.20;;;2.13;;
65717;SDS011;52445;52.466;-1.016;2023-02-01T15:06:42;5.80;;;0.80;;
65717;SDS011;52445;52.466;-1.016;2023-02-01T15:09:15;6.03;;;1.85;;
65717;SDS011;52445;52.466;-1.016;2023-02-01T15:14:32;10.57;;;1.83;;
65717;SDS011;52445;52.466;-1.016;2023-02-01T15:17:01;6.47;;;2.25;;
65717;SDS011;52445;52.466;-1.016;2023-02-01T15:19:29;8.75;;;1.52;;
65717;SDS011;52445;52.466;-1.016;2023-02-01T15:21:57;9.82;;;1.85;;
65717;SDS011;52445;52.466;-1.016;2023-02-01T15:24:26;4.78;;;1.95;;
65717;SDS011;52445;52.466;-1.016;2023-02-01T15:26:54;7.25;;;2.70;;
65717;SDS011;52445;52.466;-1.016;2023-02-01T15:29:23;9.98;;;1.85;;
65717;SDS011;52445;52.466;-1.016;2023-02-01T15:31:53;6.47;;;1.77;;
65717;SDS011;52445;52.466;-1.016;2023-02-01T15:34:21;8.75;;;1.77;;
65717;SDS011;52445;52.466;-1.016;2023-02-01T15:36:48;12.38;;;2.38;;
65717;SDS011;52445;52.466;-1.016;2023-02-01T15:39:28;7.15;;;0.90;;
65717;SDS011;52445;52.466;-1.016;2023-02-01T15:41:59;7.10;;;1.70;;
65717;SDS011;52445;52.466;-1.016;2023-02-01T15:44:45;11.75;;;2.75;;
65717;SDS011;52445;52.466;-1.016;2023-02-01T15:49:51;4.45;;;0.90;;
65717;SDS011;52445;52.466;-1.016;2023-02-01T15:54:59;5.97;;;0.73;;
65717;SDS011;52445;52.466;-1.016;2023-02-01T16:00:00;4.25;;;0.82;;
65717;SDS011;52445;52.466;-1.016;2023-02-01T16:02:41;4.72;;;1.42;;
65717;SDS011;52445;52.466;-1.016;2023-02-01T16:08:10;6.53;;;1.25;;
65717;SDS011;52445;52.466;-1.016;2023-02-01T16:10:41;5.75;;;1.17;;
65717;SDS011;52445;52.466;-1.016;2023-02-01T16:13:09;4.00;;;0.73;;
65717;SDS011;52445;52.466;-1.016;2023-02-01T16:15:36;5.18;;;1.23;;
65717;SDS011;52445;52.466;-1.016;2023-02-01T16:18:03;1.98;;;0.73;;
65717;SDS011;52445;52.466;-1.016;2023-02-01T16:20:30;5.07;;;0.50;;
65717;SDS011;52445;52.466;-1.016;2023-02-01T16:22:57;7.10;;;0.90;;
65717;SDS011;52445;52.466;-1.016;2023-02-01T16:25:23;7.32;;;0.95;;
65717;SDS011;52445;52.466;-1.016;2023-02-01T16:27:51;6.63;;;1.00;;
65717;SDS011;52445;52.466;-1.016;2023-02-01T16:30:17;3.08;;;0.73;;
65717;SDS011;52445;52.466;-1.016;2023-02-01T16:32:50;5.50;;;0.95;;
65717;SDS011;52445;52.466;-1.016;2023-02-01T16:35:23;8.00;;;1.75;;
65717;SDS011;52445;52.466;-1.016;2023-02-01T16:37:52;6.40;;;0.98;;
65717;SDS011;52445;52.466;-1.016;2023-02-01T16:40:20;9.70;;;1.23;;
65717;SDS011;52445;52.466;-1.016;2023-02-01T16:42:49;6.03;;;1.48;;
65717;SDS011;52445;52.466;-1.016;2023-02-01T16:45:19;4.13;;;1.00;;
65717;SDS011;52445;52.466;-1.016;2023-02-01T16:47:47;5.65;;;1.48;;
65717;SDS011;52445;52.466;-1.016;2023-02-01T16:50:18;6.22;;;1.95;;
65717;SDS011;52445;52.466;-1.016;2023-02-01T16:52:49;9.38;;;3.35;;
65717;SDS011;52445;52.466;-1.016;2023-02-01T16:55:17;13.43;;;4.60;;
65717;SDS011;52445;52.466;-1.016;2023-02-01T16:57:46;8.65;;;2.05;;
65717;SDS011;52445;52.466;-1.016;2023-02-01T17:00:13;8.18;;;2.15;;
65717;SDS011;52445;52.466;-1.016;2023-02-01T17:02:51;3.28;;;0.98;;
65717;SDS011;52445;52.466;-1.016;2023-02-01T17:05:18;5.47;;;1.58;;
65717;SDS011;52445;52.466;-1.016;2023-02-01T17:07:45;2.67;;;1.15;;
65717;SDS011;52445;52.466;-1.016;2023-02-01T17:10:17;12.80;;;2.47;;
65717;SDS011;52445;52.466;-1.016;2023-02-01T17:12:59;7.78;;;1.80;;
65717;SDS011;52445;52.466;-1.016;2023-02-01T17:15:27;6.43;;;1.20;;
65717;SDS011;52445;52.466;-1.016;2023-02-01T17:18:00;7.45;;;1.77;;
65717;SDS011;52445;52.466;-1.016;2023-02-01T17:20:30;8.50;;;2.55;;
65717;SDS011;52445;52.466;-1.016;2023-02-01T17:22:58;11.05;;;2.42;;
65717;SDS011;52445;52.466;-1.016;2023-02-01T17:25:25;4.53;;;0.77;;
65717;SDS011;52445;52.466;-1.016;2023-02-01T17:27:53;6.93;;;1.40;;
65717;SDS011;52445;52.466;-1.016;2023-02-01T17:30:20;6.03;;;1.35;;
65717;SDS011;52445;52.466;-1.016;2023-02-01T17:32:47;3.30;;;1.75;;
65717;SDS011;52445;52.466;-1.016;2023-02-01T17:35:18;9.13;;;1.02;;
65717;SDS011;52445;52.466;-1.016;2023-02-01T17:37:48;9.88;;;1.65;;
65717;SDS011;52445;52.466;-1.016;2023-02-01T17:40:16;8.45;;;1.65;;
65717;SDS011;52445;52.466;-1.016;2023-02-01T17:42:43;12.35;;;5.07;;
65717;SDS011;52445;52.466;-1.016;2023-02-01T17:45:16;19.15;;;5.55;;
65717;SDS011;52445;52.466;-1.016;2023-02-01T17:48:06;16.65;;;5.63;;
65717;SDS011;52445;52.466;-1.016;2023-02-01T17:50:36;8.23;;;4.32;;
65717;SDS011;52445;52.466;-1.016;2023-02-01T17:53:04;7.18;;;3.65;;
65717;SDS011;52445;52.466;-1.016;2023-02-01T17:55:39;14.15;;;4.40;;